sensor_id;sensor_type;location;lat;lon;timestamp;pressure;altitude;pressure_sealevel;temperature;humidity
13695;BME280;6919;52.344;14.518;2023-02-28T00:01:36;102262.03;;;1.16;100.00
13695;BME280;6919;52.344;14.518;2023-02-28T00:04:05;102268.44;;;1.09;100.00
13695;BME280;6919;52.344;14.518;2023-02-28T00:06:36;102268.88;;;1.22;100.00
13695;BME280;6919;52.344;14.518;2023-02-28T00:09:05;102266.00;;;1.05;100.00
13695;BME280;6919;52.344;14.518;2023-02-28T00:11:35;102267.63;;;1.09;100.00
13695;BME280;6919;52.344;14.518;2023-02-28T00:14:05;102272.41;;;0.98;100.00
13695;BME280;6919;52.344;14.518;2023-02-28T00:16:33;102275.25;;;1.16;100.00
13695;BME280;6919;52.344;14.518;2023-02-28T00:19:02;102264.69;;;1.41;100.00
13695;BME280;6919;52.344;14.518;2023-02-28T00:21:31;102271.56;;;1.20;100.00
13695;BME280;6919;52.344;14.518;2023-02-28T00:24:00;102276.44;;;1.08;100.00
13695;BME280;6919;52.344;14.518;2023-02-28T00:26:29;102269.97;;;0.92;100.00
13695;BME280;6919;52.344;14.518;2023-02-28T00:28:59;102274.53;;;0.87;100.00
13695;BME280;6919;52.344;14.518;2023-02-28T00:31:27;102281.31;;;0.94;100.00
13695;BME280;6919;52.344;14.518;2023-02-28T00:33:56;102271.22;;;1.06;100.00
13695;BME280;6919;52.344;14.518;2023-02-28T00:36:25;102273.31;;;0.97;100.00
13695;BME280;6919;52.344;14.518;2023-02-28T00:39:02;102279.75;;;0.88;100.00
13695;BME280;6919;52.344;14.518;2023-02-28T00:41:31;102272.81;;;0.86;100.00
13695;BME280;6919;52.344;14.518;2023-02-28T00:44:01;102275.94;;;0.72;100.00
13695;BME280;6919;52.344;14.518;2023-02-28T00:46:29;102275.78;;;0.77;100.00
13695;BME280;6919;52.344;14.518;2023-02-28T00:48:58;102278.00;;;0.89;100.00
13695;BME280;6919;52.344;14.518;2023-02-28T00:51:27;102285.47;;;0.76;100.00
13695;BME280;6919;52.344;14.518;2023-02-28T00:53:56;102278.69;;;0.94;100.00
13695;BME280;6919;52.344;14.518;2023-02-28T00:56:25;102284.09;;;0.91;100.00
13695;BME280;6919;52.344;14.518;2023-02-28T00:58:53;102280.22;;;0.75;100.00
13695;BME280;6919;52.344;14.518;2023-02-28T01:01:23;102284.41;;;0.56;100.00
13695;BME280;6919;52.344;14.518;2023-02-28T01:03:52;102286.50;;;0.46;100.00
13695;BME280;6919;52.344;14.518;2023-02-28T01:06:21;102283.94;;;0.69;100.00
13695;BME280;6919;52.344;14.518;2023-02-28T01:08:50;102275.09;;;0.70;100.00
13695;BME280;6919;52.344;14.518;2023-02-28T01:11:19;102278.50;;;0.48;100.00
13695;BME280;6919;52.344;14.518;2023-02-28T01:13:48;102278.91;;;0.36;100.00
13695;BME280;6919;52.344;14.518;2023-02-28T01:16:17;102280.16;;;0.24;100.00
13695;BME280;6919;52.344;14.518;2023-02-28T01:18:48;102279.47;;;0.18;100.00
13695;BME280;6919;52.344;14.518;2023-02-28T01:21:18;102269.63;;;0.23;100.00
13695;BME280;6919;52.344;14.518;2023-02-28T01:23:48;102272.59;;;0.14;100.00
13695;BME280;6919;52.344;14.518;2023-02-28T01:26:19;102273.38;;;0.16;100.00
13695;BME280;6919;52.344;14.518;2023-02-28T01:28:50;102264.06;;;0.06;100.00
13695;BME280;6919;52.344;14.518;2023-02-28T01:31:20;102260.78;;;-0.03;100.00
13695;BME280;6919;52.344;14.518;2023-02-28T01:33:51;102266.34;;;-0.12;100.00
13695;BME280;6919;52.344;14.518;2023-02-28T01:36:21;102265.47;;;-0.12;100.00
13695;BME280;6919;52.344;14.518;2023-02-28T01:38:51;102264.94;;;-0.23;100.00
13695;BME280;6919;52.344;14.518;2023-02-28T01:41:22;102256.16;;;-0.24;100.00
13695;BME280;6919;52.344;14.518;2023-02-28T01:44:00;102256.16;;;-0.24;100.00
13695;BME280;6919;52.344;14.518;2023-02-28T01:46:32;102256.66;;;-0.40;100.00
13695;BME280;6919;52.344;14.518;2023-02-28T01:49:06;102262.16;;;-0.48;100.00
13695;BME280;6919;52.344;14.518;2023-02-28T01:51:39;102258.69;;;-0.50;100.00
13695;BME280;6919;52.344;14.518;2023-02-28T01:54:16;102248.47;;;-0.02;100.00
13695;BME280;6919;52.344;14.518;2023-02-28T01:56:49;102251.31;;;-0.10;100.00
13695;BME280;6919;52.344;14.518;2023-02-28T01:59:23;102252.22;;;-0.38;100.00
13695;BME280;6919;52.344;14.518;2023-02-28T02:01:55;102255.34;;;-0.55;100.00
13695;BME280;6919;52.344;14.518;2023-02-28T02:04:27;102248.47;;;-0.60;100.00
13695;BME280;6919;52.344;14.518;2023-02-28T02:07:01;102248.41;;;-0.59;100.00
13695;BME280;6919;52.344;14.518;2023-02-28T02:09:29;102243.13;;;-0.28;100.00
13695;BME280;6919;52.344;14.518;2023-02-28T02:11:59;102239.84;;;-0.36;100.00
13695;BME280;6919;52.344;14.518;2023-02-28T02:14:48;102246.66;;;-0.29;100.00
13695;BME280;6919;52.344;14.518;2023-02-28T02:17:27;102238.28;;;-0.43;100.00
13695;BME280;6919;52.344;14.518;2023-02-28T02:23:33;102242.69;;;-0.42;100.00
13695;BME280;6919;52.344;14.518;2023-02-28T02:26:28;102238.06;;;-0.65;100.00
13695;BME280;6919;52.344;14.518;2023-02-28T02:29:36;102249.81;;;-0.76;100.00
13695;BME280;6919;52.344;14.518;2023-02-28T02:35:28;102242.84;;;-0.79;100.00
13695;BME280;6919;52.344;14.518;2023-02-28T02:38:06;102236.50;;;-0.72;100.00
13695;BME280;6919;52.344;14.518;2023-02-28T02:40:42;102236.25;;;-0.63;100.00
13695;BME280;6919;52.344;14.518;2023-02-28T02:43:15;102244.84;;;-0.87;100.00
13695;BME280;6919;52.344;14.518;2023-02-28T02:45:47;102248.44;;;-0.91;100.00
13695;BME280;6919;52.344;14.518;2023-02-28T02:48:20;102240.75;;;-0.97;100.00
13695;BME280;6919;52.344;14.518;2023-02-28T02:50:54;102238.66;;;-0.86;100.00
13695;BME280;6919;52.344;14.518;2023-02-28T02:53:27;102247.88;;;-1.02;100.00
13695;BME280;6919;52.344;14.518;2023-02-28T02:55:58;102240.44;;;-1.18;100.00
13695;BME280;6919;52.344;14.518;2023-02-28T02:58:31;102245.16;;;-1.31;100.00
13695;BME280;6919;52.344;14.518;2023-02-28T03:01:02;102253.16;;;-1.35;100.00
13695;BME280;6919;52.344;14.518;2023-02-28T03:03:33;102255.91;;;-1.40;100.00
13695;BME280;6919;52.344;14.518;2023-02-28T03:06:04;102249.41;;;-1.25;100.00
13695;BME280;6919;52.344;14.518;2023-02-28T03:08:35;102261.00;;;-1.34;100.00
13695;BME280;6919;52.344;14.518;2023-02-28T03:11:06;102256.00;;;-1.43;100.00
13695;BME280;6919;52.344;14.518;2023-02-28T03:13:52;102254.25;;;-1.44;100.00
13695;BME280;6919;52.344;14.518;2023-02-28T03:16:49;102260.06;;;-1.31;100.00
13695;BME280;6919;52.344;14.518;2023-02-28T03:19:34;102250.59;;;-1.38;100.00
13695;BME280;6919;52.344;14.518;2023-02-28T03:22:21;102253.44;;;-1.46;100.00
13695;BME280;6919;52.344;14.518;2023-02-28T03:24:57;102257.56;;;-1.36;100.00
13695;BME280;6919;52.344;14.518;2023-02-28T03:27:30;102255.25;;;-1.48;100.00
13695;BME280;6919;52.344;14.518;2023-02-28T03:30:06;102256.41;;;-1.59;100.00
13695;BME280;6919;52.344;14.518;2023-02-28T03:32:42;102256.28;;;-1.55;100.00
13695;BME280;6919;52.344;14.518;2023-02-28T03:35:17;102261.56;;;-1.55;100.00
13695;BME280;6919;52.344;14.518;2023-02-28T03:37:53;102255.91;;;-1.73;100.00
13695;BME280;6919;52.344;14.518;2023-02-28T03:40:27;102266.44;;;-1.75;100.00
13695;BME280;6919;52.344;14.518;2023-02-28T03:43:03;102258.94;;;-1.91;100.00
13695;BME280;6919;52.344;14.518;2023-02-28T03:45:37;102247.41;;;-1.86;100.00
13695;BME280;6919;52.344;14.518;2023-02-28T03:48:11;102257.31;;;-1.97;100.00
13695;BME280;6919;52.344;14.518;2023-02-28T03:50:44;102263.28;;;-1.89;100.00
13695;BME280;6919;52.344;14.518;2023-02-28T03:53:17;102249.97;;;-1.83;100.00
13695;BME280;6919;52.344;14.518;2023-02-28T03:55:49;102263.19;;;-1.86;100.00
13695;BME280;6919;52.344;14.518;2023-02-28T03:58:24;102263.34;;;-1.92;100.00
13695;BME280;6919;52.344;14.518;2023-02-28T04:01:00;102259.06;;;-1.96;100.00
13695;BME280;6919;52.344;14.518;2023-02-28T04:03:36;102256.72;;;-2.09;100.00
13695;BME280;6919;52.344;14.518;2023-02-28T04:06:07;102265.09;;;-1.92;100.00
13695;BME280;6919;52.344;14.518;2023-02-28T04:08:38;102256.75;;;-2.11;100.00
13695;BME280;6919;52.344;14.518;2023-02-28T04:11:16;102256.06;;;-2.19;100.00
13695;BME280;6919;52.344;14.518;2023-02-28T04:13:46;102261.31;;;-2.19;100.00
13695;BME280;6919;52.344;14.518;2023-02-28T04:16:15;102265.81;;;-2.24;100.00
13695;BME280;6919;52.344;14.518;2023-02-28T04:19:01;102270.22;;;-2.24;100.00
13695;BME280;6919;52.344;14.518;2023-02-28T04:21:31;102268.47;;;-2.25;100.00
13695;BME280;6919;52.344;14.518;2023-02-28T04:24:02;102267.72;;;-2.32;100.00
13695;BME280;6919;52.344;14.518;2023-02-28T04:26:31;102273.13;;;-2.38;100.00
13695;BME280;6919;52.344;14.518;2023-02-28T04:29:01;102279.25;;;-2.39;100.00
13695;BME280;6919;52.344;14.518;2023-02-28T04:31:30;102276.69;;;-2.40;100.00
13695;BME280;6919;52.344;14.518;2023-02-28T04:34:00;102281.03;;;-2.39;100.00
13695;BME280;6919;52.344;14.518;2023-02-28T04:36:28;102289.91;;;-2.45;100.00
13695;BME280;6919;52.344;14.518;2023-02-28T04:38:57;102283.91;;;-2.51;100.00
13695;BME280;6919;52.344;14.518;2023-02-28T04:41:27;102294.34;;;-2.48;100.00
13695;BME280;6919;52.344;14.518;2023-02-28T04:43:59;102284.78;;;-2.51;100.00
13695;BME280;6919;52.344;14.518;2023-02-28T04:46:27;102285.69;;;-2.52;100.00
13695;BME280;6919;52.344;14.518;2023-02-28T04:48:57;102295.41;;;-2.57;100.00
13695;BME280;6919;52.344;14.518;2023-02-28T04:51:26;102298.16;;;-2.63;100.00
13695;BME280;6919;52.344;14.518;2023-02-28T04:53:56;102297.25;;;-2.62;100.00
13695;BME280;6919;52.344;14.518;2023-02-28T04:56:25;102301.69;;;-2.65;100.00
13695;BME280;6919;52.344;14.518;2023-02-28T04:58:55;102296.53;;;-2.68;100.00
13695;BME280;6919;52.344;14.518;2023-02-28T05:01:25;102291.38;;;-2.73;100.00
13695;BME280;6919;52.344;14.518;2023-02-28T05:03:56;102307.06;;;-2.70;100.00
13695;BME280;6919;52.344;14.518;2023-02-28T05:06:28;102306.03;;;-2.63;100.00
13695;BME280;6919;52.344;14.518;2023-02-28T05:08:57;102299.66;;;-2.51;100.00
13695;BME280;6919;52.344;14.518;2023-02-28T05:11:28;102296.91;;;-2.45;100.00
13695;BME280;6919;52.344;14.518;2023-02-28T05:14:02;102296.09;;;-2.47;100.00
13695;BME280;6919;52.344;14.518;2023-02-28T05:16:32;102300.63;;;-2.55;100.00
13695;BME280;6919;52.344;14.518;2023-02-28T05:19:01;102306.81;;;-2.58;100.00
13695;BME280;6919;52.344;14.518;2023-02-28T05:21:32;102302.09;;;-2.41;100.00
13695;BME280;6919;52.344;14.518;2023-02-28T05:24:02;102299.75;;;-2.54;100.00
13695;BME280;6919;52.344;14.518;2023-02-28T05:26:34;102300.56;;;-2.52;100.00
13695;BME280;6919;52.344;14.518;2023-02-28T05:29:05;102299.19;;;-2.70;100.00
13695;BME280;6919;52.344;14.518;2023-02-28T05:31:33;102305.53;;;-2.81;100.00
13695;BME280;6919;52.344;14.518;2023-02-28T05:34:02;102306.56;;;-2.90;100.00
13695;BME280;6919;52.344;14.518;2023-02-28T05:36:32;102312.69;;;-2.89;100.00
13695;BME280;6919;52.344;14.518;2023-02-28T05:39:00;102307.47;;;-2.91;100.00
13695;BME280;6919;52.344;14.518;2023-02-28T05:41:30;102314.56;;;-2.99;100.00
13695;BME280;6919;52.344;14.518;2023-02-28T05:43:59;102316.44;;;-3.04;100.00
13695;BME280;6919;52.344;14.518;2023-02-28T05:46:29;102315.41;;;-2.95;100.00
13695;BME280;6919;52.344;14.518;2023-02-28T05:48:58;102322.41;;;-2.96;100.00
13695;BME280;6919;52.344;14.518;2023-02-28T05:51:28;102323.31;;;-2.98;100.00
13695;BME280;6919;52.344;14.518;2023-02-28T05:54:00;102320.69;;;-2.97;100.00
13695;BME280;6919;52.344;14.518;2023-02-28T05:56:30;102324.28;;;-3.03;100.00
13695;BME280;6919;52.344;14.518;2023-02-28T05:59:01;102330.31;;;-2.99;100.00
13695;BME280;6919;52.344;14.518;2023-02-28T06:01:37;102338.19;;;-2.99;100.00
13695;BME280;6919;52.344;14.518;2023-02-28T06:04:08;102338.09;;;-2.93;100.00
13695;BME280;6919;52.344;14.518;2023-02-28T06:06:52;102343.28;;;-2.88;100.00
13695;BME280;6919;52.344;14.518;2023-02-28T06:09:20;102338.94;;;-2.89;100.00
13695;BME280;6919;52.344;14.518;2023-02-28T06:11:49;102333.41;;;-2.76;100.00
13695;BME280;6919;52.344;14.518;2023-02-28T06:14:19;102336.25;;;-2.42;100.00
13695;BME280;6919;52.344;14.518;2023-02-28T06:16:49;102329.84;;;-2.72;100.00
13695;BME280;6919;52.344;14.518;2023-02-28T06:19:18;102329.00;;;-2.74;100.00
13695;BME280;6919;52.344;14.518;2023-02-28T06:21:51;102328.06;;;-2.70;100.00
13695;BME280;6919;52.344;14.518;2023-02-28T06:24:20;102332.28;;;-2.61;100.00
13695;BME280;6919;52.344;14.518;2023-02-28T06:26:50;102339.16;;;-2.56;100.00
13695;BME280;6919;52.344;14.518;2023-02-28T06:29:19;102339.13;;;-2.54;100.00
13695;BME280;6919;52.344;14.518;2023-02-28T06:31:49;102341.47;;;-2.41;100.00
13695;BME280;6919;52.344;14.518;2023-02-28T06:34:18;102344.03;;;-2.36;100.00
13695;BME280;6919;52.344;14.518;2023-02-28T06:36:46;102352.38;;;-2.18;100.00
13695;BME280;6919;52.344;14.518;2023-02-28T06:39:19;102347.13;;;-2.18;100.00
13695;BME280;6919;52.344;14.518;2023-02-28T06:41:48;102344.06;;;-1.98;100.00
13695;BME280;6919;52.344;14.518;2023-02-28T06:44:22;102344.81;;;-1.92;100.00
13695;BME280;6919;52.344;14.518;2023-02-28T06:46:53;102345.59;;;-1.88;100.00
13695;BME280;6919;52.344;14.518;2023-02-28T06:49:21;102354.56;;;-1.59;100.00
13695;BME280;6919;52.344;14.518;2023-02-28T06:51:50;102353.03;;;-1.67;100.00
13695;BME280;6919;52.344;14.518;2023-02-28T06:54:19;102356.59;;;-1.70;100.00
13695;BME280;6919;52.344;14.518;2023-02-28T06:56:47;102358.31;;;-1.69;100.00
13695;BME280;6919;52.344;14.518;2023-02-28T06:59:16;102361.66;;;-1.61;100.00
13695;BME280;6919;52.344;14.518;2023-02-28T07:01:45;102361.06;;;-1.37;100.00
13695;BME280;6919;52.344;14.518;2023-02-28T07:04:16;102354.06;;;-1.38;100.00
13695;BME280;6919;52.344;14.518;2023-02-28T07:06:44;102363.94;;;-1.11;100.00
13695;BME280;6919;52.344;14.518;2023-02-28T07:09:13;102364.66;;;-1.04;100.00
13695;BME280;6919;52.344;14.518;2023-02-28T07:11:42;102361.34;;;-1.12;100.00
13695;BME280;6919;52.344;14.518;2023-02-28T07:14:11;102355.47;;;-0.88;100.00
13695;BME280;6919;52.344;14.518;2023-02-28T07:16:39;102365.81;;;-0.82;100.00
13695;BME280;6919;52.344;14.518;2023-02-28T07:19:08;102364.31;;;-0.59;100.00
13695;BME280;6919;52.344;14.518;2023-02-28T07:21:38;102363.28;;;-0.53;100.00
13695;BME280;6919;52.344;14.518;2023-02-28T07:24:07;102360.34;;;-0.41;100.00
13695;BME280;6919;52.344;14.518;2023-02-28T07:26:36;102356.63;;;-0.34;100.00
13695;BME280;6919;52.344;14.518;2023-02-28T07:29:04;102356.06;;;-0.15;100.00
13695;BME280;6919;52.344;14.518;2023-02-28T07:31:33;102358.81;;;-0.19;100.00
13695;BME280;6919;52.344;14.518;2023-02-28T07:34:02;102365.47;;;-0.06;100.00
13695;BME280;6919;52.344;14.518;2023-02-28T07:36:31;102361.53;;;0.07;100.00
13695;BME280;6919;52.344;14.518;2023-02-28T07:39:01;102364.34;;;0.03;100.00
13695;BME280;6919;52.344;14.518;2023-02-28T07:41:30;102358.38;;;0.25;100.00
13695;BME280;6919;52.344;14.518;2023-02-28T07:44:01;102363.16;;;0.42;100.00
13695;BME280;6919;52.344;14.518;2023-02-28T07:46:30;102365.06;;;0.64;100.00
13695;BME280;6919;52.344;14.518;2023-02-28T07:49:03;102366.28;;;0.80;100.00
13695;BME280;6919;52.344;14.518;2023-02-28T07:51:33;102366.69;;;0.94;100.00
13695;BME280;6919;52.344;14.518;2023-02-28T07:54:03;102370.00;;;1.27;100.00
13695;BME280;6919;52.344;14.518;2023-02-28T07:56:32;102367.47;;;1.48;100.00
13695;BME280;6919;52.344;14.518;2023-02-28T07:59:01;102363.38;;;1.40;100.00
13695;BME280;6919;52.344;14.518;2023-02-28T08:01:30;102362.13;;;1.50;100.00
13695;BME280;6919;52.344;14.518;2023-02-28T08:03:59;102366.00;;;1.64;100.00
13695;BME280;6919;52.344;14.518;2023-02-28T08:06:28;102368.09;;;1.79;100.00
13695;BME280;6919;52.344;14.518;2023-02-28T08:08:56;102372.75;;;1.96;100.00
13695;BME280;6919;52.344;14.518;2023-02-28T08:11:27;102372.56;;;2.25;100.00
13695;BME280;6919;52.344;14.518;2023-02-28T08:13:55;102370.81;;;2.24;100.00
13695;BME280;6919;52.344;14.518;2023-02-28T08:16:24;102372.06;;;2.37;100.00
13695;BME280;6919;52.344;14.518;2023-02-28T08:18:53;102370.31;;;2.59;100.00
13695;BME280;6919;52.344;14.518;2023-02-28T08:21:22;102373.88;;;2.58;100.00
13695;BME280;6919;52.344;14.518;2023-02-28T08:23:52;102368.31;;;2.65;100.00
13695;BME280;6919;52.344;14.518;2023-02-28T08:26:21;102371.66;;;2.69;100.00
13695;BME280;6919;52.344;14.518;2023-02-28T08:28:51;102365.16;;;2.77;100.00
13695;BME280;6919;52.344;14.518;2023-02-28T08:31:23;102372.41;;;2.51;100.00
13695;BME280;6919;52.344;14.518;2023-02-28T08:33:51;102372.63;;;2.45;100.00
13695;BME280;6919;52.344;14.518;2023-02-28T08:36:24;102369.13;;;2.66;100.00
13695;BME280;6919;52.344;14.518;2023-02-28T08:38:53;102375.13;;;2.71;100.00
13695;BME280;6919;52.344;14.518;2023-02-28T08:41:22;102373.22;;;2.30;100.00
13695;BME280;6919;52.344;14.518;2023-02-28T08:43:52;102374.75;;;2.58;100.00
13695;BME280;6919;52.344;14.518;2023-02-28T08:46:22;102374.69;;;2.81;100.00
13695;BME280;6919;52.344;14.518;2023-02-28T08:48:52;102372.25;;;3.19;100.00
13695;BME280;6919;52.344;14.518;2023-02-28T08:51:22;102367.41;;;3.48;100.00
13695;BME280;6919;52.344;14.518;2023-02-28T08:53:55;102376.66;;;3.40;100.00
13695;BME280;6919;52.344;14.518;2023-02-28T08:56:25;102363.75;;;3.71;100.00
13695;BME280;6919;52.344;14.518;2023-02-28T08:58:56;102372.84;;;3.85;97.52
13695;BME280;6919;52.344;14.518;2023-02-28T09:01:26;102375.16;;;4.11;94.69
13695;BME280;6919;52.344;14.518;2023-02-28T09:03:57;102378.84;;;4.09;92.11
13695;BME280;6919;52.344;14.518;2023-02-28T09:06:27;102375.16;;;3.93;92.68
13695;BME280;6919;52.344;14.518;2023-02-28T09:08:57;102371.13;;;4.03;92.41
13695;BME280;6919;52.344;14.518;2023-02-28T09:11:28;102373.34;;;3.93;89.72
13695;BME280;6919;52.344;14.518;2023-02-28T09:13:59;102379.41;;;4.15;89.15
13695;BME280;6919;52.344;14.518;2023-02-28T09:16:31;102375.34;;;4.45;86.22
13695;BME280;6919;52.344;14.518;2023-02-28T09:19:01;102375.97;;;4.69;78.77
13695;BME280;6919;52.344;14.518;2023-02-28T09:21:29;102366.13;;;4.71;71.54
13695;BME280;6919;52.344;14.518;2023-02-28T09:23:59;102368.13;;;4.84;70.55
13695;BME280;6919;52.344;14.518;2023-02-28T09:26:28;102375.41;;;4.62;69.01
13695;BME280;6919;52.344;14.518;2023-02-28T09:29:10;102374.69;;;4.40;70.30
13695;BME280;6919;52.344;14.518;2023-02-28T09:31:39;102363.81;;;4.82;69.38
13695;BME280;6919;52.344;14.518;2023-02-28T09:34:08;102370.28;;;4.76;66.83
13695;BME280;6919;52.344;14.518;2023-02-28T09:36:36;102366.94;;;4.90;68.33
13695;BME280;6919;52.344;14.518;2023-02-28T09:39:12;102369.84;;;4.67;63.70
13695;BME280;6919;52.344;14.518;2023-02-28T09:41:44;102374.81;;;4.74;65.98
13695;BME280;6919;52.344;14.518;2023-02-28T09:44:23;102377.22;;;4.97;63.95
13695;BME280;6919;52.344;14.518;2023-02-28T09:46:57;102373.06;;;5.09;62.97
13695;BME280;6919;52.344;14.518;2023-02-28T09:49:34;102375.03;;;5.05;58.67
13695;BME280;6919;52.344;14.518;2023-02-28T09:52:10;102378.97;;;5.15;58.72
13695;BME280;6919;52.344;14.518;2023-02-28T09:54:40;102377.63;;;5.07;57.76
13695;BME280;6919;52.344;14.518;2023-02-28T09:57:16;102370.84;;;5.18;56.96
13695;BME280;6919;52.344;14.518;2023-02-28T10:00:02;102377.78;;;5.21;58.12
13695;BME280;6919;52.344;14.518;2023-02-28T10:02:58;102374.59;;;4.79;57.39
13695;BME280;6919;52.344;14.518;2023-02-28T10:05:34;102375.34;;;4.81;58.92
13695;BME280;6919;52.344;14.518;2023-02-28T10:08:11;102378.63;;;5.21;60.92
13695;BME280;6919;52.344;14.518;2023-02-28T10:10:42;102377.63;;;5.58;58.97
13695;BME280;6919;52.344;14.518;2023-02-28T10:13:22;102380.22;;;5.25;58.32
13695;BME280;6919;52.344;14.518;2023-02-28T10:15:56;102376.16;;;5.52;58.91
13695;BME280;6919;52.344;14.518;2023-02-28T10:18:30;102378.19;;;5.64;58.01
13695;BME280;6919;52.344;14.518;2023-02-28T10:21:05;102373.31;;;5.04;57.20
13695;BME280;6919;52.344;14.518;2023-02-28T10:23:35;102375.06;;;4.51;58.71
13695;BME280;6919;52.344;14.518;2023-02-28T10:26:11;102364.91;;;4.78;59.39
13695;BME280;6919;52.344;14.518;2023-02-28T10:28:41;102362.75;;;5.20;58.42
13695;BME280;6919;52.344;14.518;2023-02-28T10:31:14;102362.91;;;5.34;56.45
13695;BME280;6919;52.344;14.518;2023-02-28T10:33:45;102357.53;;;5.35;55.25
13695;BME280;6919;52.344;14.518;2023-02-28T10:36:17;102370.91;;;5.51;54.93
13695;BME280;6919;52.344;14.518;2023-02-28T10:38:47;102357.34;;;5.72;54.72
13695;BME280;6919;52.344;14.518;2023-02-28T10:41:28;102358.75;;;5.79;53.04
13695;BME280;6919;52.344;14.518;2023-02-28T10:44:19;102349.53;;;5.69;53.17
13695;BME280;6919;52.344;14.518;2023-02-28T10:46:51;102353.69;;;5.41;52.37
13695;BME280;6919;52.344;14.518;2023-02-28T10:49:22;102359.38;;;5.67;52.43
13695;BME280;6919;52.344;14.518;2023-02-28T10:51:54;102354.38;;;5.10;53.85
13695;BME280;6919;52.344;14.518;2023-02-28T10:54:27;102345.81;;;5.39;54.07
13695;BME280;6919;52.344;14.518;2023-02-28T10:57:15;102356.13;;;5.45;54.29
13695;BME280;6919;52.344;14.518;2023-02-28T10:59:45;102350.78;;;5.45;53.39
13695;BME280;6919;52.344;14.518;2023-02-28T11:02:36;102349.88;;;5.29;55.76
13695;BME280;6919;52.344;14.518;2023-02-28T11:05:26;102344.13;;;5.54;55.97
13695;BME280;6919;52.344;14.518;2023-02-28T11:07:57;102351.41;;;5.84;53.13
13695;BME280;6919;52.344;14.518;2023-02-28T11:10:31;102351.34;;;6.01;53.29
13695;BME280;6919;52.344;14.518;2023-02-28T11:13:02;102356.69;;;6.01;52.89
13695;BME280;6919;52.344;14.518;2023-02-28T11:15:33;102346.56;;;5.92;52.67
13695;BME280;6919;52.344;14.518;2023-02-28T11:18:20;102351.78;;;5.77;54.73
13695;BME280;6919;52.344;14.518;2023-02-28T11:20:52;102345.91;;;5.70;55.74
13695;BME280;6919;52.344;14.518;2023-02-28T11:23:24;102352.72;;;5.76;56.04
13695;BME280;6919;52.344;14.518;2023-02-28T11:25:57;102352.66;;;6.10;55.03
13695;BME280;6919;52.344;14.518;2023-02-28T11:28:29;102350.53;;;6.32;53.29
13695;BME280;6919;52.344;14.518;2023-02-28T11:31:16;102357.25;;;6.39;53.04
13695;BME280;6919;52.344;14.518;2023-02-28T11:33:49;102350.03;;;6.26;52.21
13695;BME280;6919;52.344;14.518;2023-02-28T11:36:21;102354.97;;;6.00;53.89
13695;BME280;6919;52.344;14.518;2023-02-28T11:38:53;102354.22;;;5.81;52.47
13695;BME280;6919;52.344;14.518;2023-02-28T11:41:53;102346.34;;;5.63;54.39
13695;BME280;6919;52.344;14.518;2023-02-28T11:44:38;102339.25;;;5.96;55.73
13695;BME280;6919;52.344;14.518;2023-02-28T11:47:15;102351.47;;;6.16;53.60
13695;BME280;6919;52.344;14.518;2023-02-28T11:49:54;102348.84;;;5.98;53.99
13695;BME280;6919;52.344;14.518;2023-02-28T11:52:33;102339.34;;;6.10;53.74
13695;BME280;6919;52.344;14.518;2023-02-28T11:55:16;102333.16;;;6.09;53.87
13695;BME280;6919;52.344;14.518;2023-02-28T12:01:23;102326.16;;;6.40;54.10
13695;BME280;6919;52.344;14.518;2023-02-28T12:04:03;102322.00;;;6.19;55.63
13695;BME280;6919;52.344;14.518;2023-02-28T12:06:40;102317.66;;;6.18;56.03
13695;BME280;6919;52.344;14.518;2023-02-28T12:09:35;102317.47;;;6.36;55.94
13695;BME280;6919;52.344;14.518;2023-02-28T12:12:20;102316.69;;;6.19;52.93
13695;BME280;6919;52.344;14.518;2023-02-28T12:18:07;102304.94;;;5.90;52.83
13695;BME280;6919;52.344;14.518;2023-02-28T12:20:45;102298.56;;;5.77;53.90
13695;BME280;6919;52.344;14.518;2023-02-28T12:23:37;102297.00;;;6.21;52.73
13695;BME280;6919;52.344;14.518;2023-02-28T12:26:17;102295.38;;;6.19;53.40
13695;BME280;6919;52.344;14.518;2023-02-28T12:28:51;102292.38;;;6.09;53.14
13695;BME280;6919;52.344;14.518;2023-02-28T12:31:24;102278.97;;;6.11;53.69
13695;BME280;6919;52.344;14.518;2023-02-28T12:33:56;102272.38;;;6.18;53.02
13695;BME280;6919;52.344;14.518;2023-02-28T12:36:28;102276.19;;;6.59;52.34
13695;BME280;6919;52.344;14.518;2023-02-28T12:39:02;102266.00;;;6.81;51.95
13695;BME280;6919;52.344;14.518;2023-02-28T12:41:36;102273.75;;;6.70;50.04
13695;BME280;6919;52.344;14.518;2023-02-28T12:44:11;102263.16;;;6.84;50.01
13695;BME280;6919;52.344;14.518;2023-02-28T12:46:44;102264.53;;;6.46;50.10
13695;BME280;6919;52.344;14.518;2023-02-28T12:49:16;102261.78;;;6.32;50.71
13695;BME280;6919;52.344;14.518;2023-02-28T12:51:46;102258.06;;;6.50;50.19
13695;BME280;6919;52.344;14.518;2023-02-28T12:54:22;102249.78;;;6.54;50.95
13695;BME280;6919;52.344;14.518;2023-02-28T12:56:58;102249.72;;;6.85;51.29
13695;BME280;6919;52.344;14.518;2023-02-28T12:59:39;102245.00;;;6.90;49.86
13695;BME280;6919;52.344;14.518;2023-02-28T13:05:29;102242.50;;;6.87;49.20
13695;BME280;6919;52.344;14.518;2023-02-28T13:11:29;102250.09;;;6.50;50.21
13695;BME280;6919;52.344;14.518;2023-02-28T13:14:04;102243.56;;;6.40;50.14
13695;BME280;6919;52.344;14.518;2023-02-28T13:16:55;102243.31;;;6.74;50.04
13695;BME280;6919;52.344;14.518;2023-02-28T13:19:27;102239.16;;;6.84;50.94
13695;BME280;6919;52.344;14.518;2023-02-28T13:21:57;102245.25;;;7.15;51.05
13695;BME280;6919;52.344;14.518;2023-02-28T13:24:48;102243.06;;;7.36;50.31
13695;BME280;6919;52.344;14.518;2023-02-28T13:27:31;102236.41;;;7.85;48.28
13695;BME280;6919;52.344;14.518;2023-02-28T13:30:01;102249.56;;;7.88;48.03
13695;BME280;6919;52.344;14.518;2023-02-28T13:33:26;102240.84;;;8.92;45.11
13695;BME280;6919;52.344;14.518;2023-02-28T13:36:08;102242.63;;;9.43;45.36
13695;BME280;6919;52.344;14.518;2023-02-28T13:38:40;102243.03;;;9.87;44.49